Time;durP1;ratioP1;P1;durP2;ratioP2;P2;SDS_P1;SDS_P2;PMS_P1;PMS_P2;Temp;Humidity;BMP_temperature;BMP_pressure;BME280_temperature;BME280_humidity;BME280_pressure;Samples;Min_cycle;Max_cycle;Signal;HPM_P1;HPM_P2
2023/01/16 00:00:17;;;;;;;0.65;0.65;;;;;;;-5.41;84.67;99418.63;5031647;28;20099;-87
2023/01/16 00:02:44;;;;;;;0.70;0.70;;;;;;;-5.41;84.58;99429.97;5031284;28;20053;-87
2023/01/16 00:05:11;;;;;;;0.85;0.85;;;;;;;-5.46;84.49;99417.22;5011319;28;20050;-88
2023/01/16 00:07:38;;;;;;;0.90;0.90;;;;;;;-5.42;84.84;99436.19;5010191;28;20415;-87
2023/01/16 00:10:06;;;;;;;0.70;0.70;;;;;;;-5.41;84.95;99429.97;5031702;28;20050;-86
2023/01/16 00:12:33;;;;;;;0.80;0.80;;;;;;;-5.39;85.01;99425.41;5031360;28;20527;-87
2023/01/16 00:15:00;;;;;;;0.90;0.90;;;;;;;-5.38;84.78;99427.06;5031694;28;20049;-88
2023/01/16 00:17:30;;;;;;;0.70;0.70;;;;;;;-5.39;84.87;99421.94;5031982;28;20053;-88
2023/01/16 00:19:57;;;;;;;0.90;0.90;;;;;;;-5.37;85.03;99423.47;5013900;28;20081;-88
2023/01/16 00:22:25;;;;;;;0.70;0.70;;;;;;;-5.38;84.74;99419.19;5031821;28;20053;-88
2023/01/16 00:24:52;;;;;;;0.75;0.75;;;;;;;-5.39;84.88;99407.00;5031697;28;20056;-87
2023/01/16 00:27:19;;;;;;;0.80;0.80;;;;;;;-5.41;84.89;99400.22;5031040;28;20048;-87
2023/01/16 00:29:46;;;;;;;0.80;0.80;;;;;;;-5.40;85.01;99418.47;5031335;28;20053;-87
2023/01/16 00:32:15;;;;;;;0.70;0.70;;;;;;;-5.41;84.93;99401.03;5031057;28;20045;-87
2023/01/16 00:34:42;;;;;;;0.70;0.70;;;;;;;-5.42;85.25;99393.25;5030904;28;20053;-88
2023/01/16 00:37:09;;;;;;;0.90;0.90;;;;;;;-5.43;85.03;99381.09;5030857;28;20053;-89
2023/01/16 00:39:38;;;;;;;0.73;0.73;;;;;;;-5.42;85.15;99380.94;5031105;28;20057;-88
2023/01/16 00:42:06;;;;;;;0.70;0.70;;;;;;;-5.39;85.51;99390.38;5031024;28;20500;-88
2023/01/16 00:44:33;;;;;;;0.80;0.80;;;;;;;-5.40;85.27;99376.38;5012404;28;20069;-88
2023/01/16 00:47:00;;;;;;;0.70;0.70;;;;;;;-5.40;85.28;99386.91;5031109;28;20049;-88
2023/01/16 00:49:27;;;;;;;0.70;0.70;;;;;;;-5.39;85.42;99377.22;5031001;28;20421;-88
2023/01/16 00:51:55;;;;;;;0.88;0.88;;;;;;;-5.42;85.38;99380.13;5031512;28;20045;-87
2023/01/16 00:54:23;;;;;;;0.75;0.75;;;;;;;-5.42;85.35;99394.09;5030898;28;20049;-87
2023/01/16 00:56:50;;;;;;;0.98;0.98;;;;;;;-5.41;85.56;99377.34;5013378;28;20049;-88
2023/01/16 00:59:17;;;;;;;0.80;0.80;;;;;;;-5.40;85.49;99373.75;5030720;28;20041;-88
2023/01/16 01:01:43;;;;;;;0.60;0.60;;;;;;;-5.40;85.63;99365.03;5030655;28;20052;-87
2023/01/16 01:04:12;;;;;;;1.00;1.00;;;;;;;-5.36;85.47;99366.44;5018306;28;20404;-89
2023/01/16 01:06:39;;;;;;;0.70;0.70;;;;;;;-5.39;85.36;99372.81;4997766;28;20049;-88
2023/01/16 01:09:07;;;;;;;0.80;0.80;;;;;;;-5.41;85.37;99350.22;5031091;28;20334;-86
2023/01/16 01:11:34;;;;;;;0.70;0.70;;;;;;;-5.40;85.57;99362.41;5030778;28;20073;-87
2023/01/16 01:14:02;;;;;;;0.80;0.80;;;;;;;-5.41;85.63;99368.66;5034986;28;20566;-87
2023/01/16 01:16:29;;;;;;;0.80;0.80;;;;;;;-5.40;85.71;99372.94;5036266;28;20055;-88
2023/01/16 01:18:56;;;;;;;0.90;0.90;;;;;;;-5.40;85.82;99363.22;5042174;28;20056;-88
2023/01/16 01:21:23;;;;;;;0.60;0.60;;;;;;;-5.41;85.63;99348.44;5049357;28;20580;-87
2023/01/16 01:23:50;;;;;;;0.90;0.90;;;;;;;-5.42;85.97;99367.78;5028658;28;20058;-87
2023/01/16 01:26:17;;;;;;;0.77;0.77;;;;;;;-5.41;86.08;99343.16;5041100;28;20054;-88
2023/01/16 01:28:47;;;;;;;0.70;0.70;;;;;;;-5.40;86.20;99333.47;5042716;28;20061;-88
2023/01/16 01:31:13;;;;;;;0.65;0.65;;;;;;;-5.40;86.25;99341.34;5007750;28;20046;-88
2023/01/16 01:33:41;;;;;;;0.65;0.65;;;;;;;-5.39;86.25;99338.59;5047040;28;20045;-89
2023/01/16 01:36:08;;;;;;;0.68;0.68;;;;;;;-5.37;86.14;99343.72;5047258;28;20132;-87
2023/01/16 01:38:37;;;;;;;0.70;0.70;;;;;;;-5.41;86.11;99348.44;5023716;28;20057;-88
2023/01/16 01:41:04;;;;;;;0.57;0.57;;;;;;;-5.40;86.31;99334.28;5040521;28;20626;-88
2023/01/16 01:43:46;;;;;;;0.80;0.80;;;;;;;-5.34;86.14;99325.88;5042438;28;20048;-88
2023/01/16 01:46:19;;;;;;;0.65;0.65;;;;;;;-5.40;86.14;99323.78;5026698;28;20055;-87
2023/01/16 01:48:47;;;;;;;0.70;0.70;;;;;;;-5.39;86.28;99328.09;5039954;28;20053;-88
2023/01/16 01:51:18;;;;;;;0.70;0.70;;;;;;;-5.40;86.32;99321.13;5015564;28;20582;-88
2023/01/16 01:53:56;;;;;;;0.70;0.70;;;;;;;-5.39;86.46;99332.50;5025919;28;20052;-88
2023/01/16 01:56:30;;;;;;;0.70;0.70;;;;;;;-5.42;86.59;99264.38;5001849;28;20076;-87
2023/01/16 01:59:02;;;;;;;0.90;0.90;;;;;;;-5.45;86.46;99307.56;5013599;28;20050;-88
2023/01/16 02:01:29;;;;;;;0.70;0.70;;;;;;;-5.44;86.77;99293.47;5033923;28;20117;-87
2023/01/16 02:04:06;;;;;;;0.80;0.80;;;;;;;-5.47;86.66;99291.94;5034322;28;20070;-88
2023/01/16 02:06:55;;;;;;;0.90;0.90;;;;;;;-5.47;86.78;99294.56;5033780;28;20096;-89
2023/01/16 02:09:23;;;;;;;0.82;0.82;;;;;;;-5.49;86.80;99309.63;5031191;28;20050;-89
2023/01/16 02:11:50;;;;;;;0.80;0.80;;;;;;;-5.48;87.01;99308.66;5027974;28;20420;-87
2023/01/16 02:14:17;;;;;;;0.70;0.70;;;;;;;-5.43;87.00;99302.19;5031626;28;20136;-88
2023/01/16 02:20:02;;;;;;;0.82;0.82;;;;;;;-5.45;87.13;99289.16;5043658;28;20053;-89
2023/01/16 02:22:35;;;;;;;;;;;;;;;-5.49;87.16;99285.16;5041825;28;20088;-87
2023/01/16 02:25:21;;;;;;;0.85;0.85;;;;;;;-5.55;87.25;99289.13;5042676;28;19925;-87
2023/01/16 02:28:16;;;;;;;0.63;0.63;;;;;;;-5.55;87.45;99307.53;5040798;28;20061;-88
2023/01/16 02:31:20;;;;;;;0.80;0.80;;;;;;;-5.50;87.55;99289.53;5033719;28;20053;-87
2023/01/16 02:34:18;;;;;;;0.90;0.90;;;;;;;-5.48;87.42;99292.06;5033952;28;20133;-88
2023/01/16 02:36:57;;;;;;;0.90;0.90;;;;;;;-5.50;87.43;99289.53;5033584;28;20068;-90
2023/01/16 02:39:47;;;;;;;0.90;0.90;;;;;;;-5.48;87.28;99284.16;5029876;28;20132;-90
2023/01/16 02:42:41;;;;;;;0.98;0.98;;;;;;;-5.45;87.68;99281.25;5009748;28;20142;-92
2023/01/16 02:45:33;;;;;;;0.80;0.80;;;;;;;-5.47;87.44;99288.44;5008757;28;20060;-88
2023/01/16 02:48:15;;;;;;;0.70;0.70;;;;;;;-5.52;87.63;99275.72;5015869;28;20144;-89
2023/01/16 02:50:53;;;;;;;0.93;0.93;;;;;;;-5.57;87.82;99277.06;5033413;28;20046;-86
2023/01/16 02:53:41;;;;;;;0.60;0.60;;;;;;;-5.60;87.91;99270.28;5001825;28;20136;-90
2023/01/16 02:56:11;;;;;;;0.70;0.70;;;;;;;-5.64;88.04;99262.81;4997435;28;20053;-87
2023/01/16 02:58:42;;;;;;;0.82;0.82;;;;;;;-5.63;88.19;99254.78;5005472;28;20061;-86
2023/01/16 03:01:09;;;;;;;0.80;0.80;;;;;;;-5.58;88.20;99249.94;5014554;28;20056;-87
2023/01/16 03:04:34;;;;;;;0.90;0.90;;;;;;;-5.54;88.20;99271.56;5031669;28;20061;-88
2023/01/16 03:12:04;;;;;;;0.65;0.65;;;;;;;-5.58;87.79;99275.41;4788282;29;20055;-88
2023/01/16 03:15:13;;;;;;;0.90;0.90;;;;;;;-5.55;87.81;99265.44;4771268;30;20535;-87
2023/01/16 03:18:11;;;;;;;0.80;0.80;;;;;;;-5.55;87.68;99275.16;4784258;30;20059;-87
2023/01/16 03:20:58;;;;;;;0.90;0.90;;;;;;;-5.56;87.62;99265.59;4784578;30;20055;-86
2023/01/16 03:23:56;;;;;;;0.70;0.70;;;;;;;-5.57;87.73;99235.00;4784082;30;20469;-87
2023/01/16 03:26:45;;;;;;;0.80;0.80;;;;;;;-5.55;87.62;99248.84;4783640;29;20055;-87
2023/01/16 03:29:29;;;;;;;0.70;0.70;;;;;;;-5.56;87.47;99268.22;4784721;30;20066;-88
2023/01/16 03:32:18;;;;;;;0.90;0.90;;;;;;;-5.55;87.62;99256.72;4791591;30;20051;-90
2023/01/16 03:35:08;;;;;;;0.80;0.80;;;;;;;-5.52;87.75;99261.72;4789231;30;20134;-93
2023/01/16 03:38:12;;;;;;;0.70;0.70;;;;;;;-5.57;87.85;99253.41;4787691;30;20531;-90
2023/01/16 03:40:45;;;;;;;0.73;0.73;;;;;;;-5.53;87.86;99246.91;4736148;30;20044;-93
2023/01/16 03:43:35;;;;;;;0.88;0.88;;;;;;;-5.52;87.58;99256.47;4767426;30;20048;-85
2023/01/16 03:46:23;;;;;;;0.85;0.85;;;;;;;-5.55;87.75;99254.09;4783152;29;20063;-90
2023/01/16 03:49:07;;;;;;;0.90;0.90;;;;;;;-5.52;87.35;99252.06;4846911;29;20060;-90
2023/01/16 03:51:44;;;;;;;0.90;0.90;;;;;;;-5.57;87.51;99241.09;4895384;29;20060;-88
2023/01/16 03:54:35;;;;;;;0.90;0.90;;;;;;;-5.52;87.57;99228.38;4847982;29;20052;-89
2023/01/16 03:57:19;;;;;;;0.75;0.75;;;;;;;-5.51;87.27;99250.25;4890347;29;20519;-89
2023/01/16 03:59:49;;;;;;;0.90;0.90;;;;;;;-5.57;87.11;99245.50;4879645;29;20179;-90
2023/01/16 04:02:26;;;;;;;0.70;0.70;;;;;;;-5.59;87.52;99237.78;4914298;29;20063;-88
2023/01/16 04:05:01;;;;;;;0.70;0.70;;;;;;;-5.59;87.50;99235.16;4911790;29;20512;-88
2023/01/16 04:07:40;;;;;;;0.85;0.85;;;;;;;-5.59;87.34;99256.19;4891145;29;20124;-87
2023/01/16 04:10:33;;;;;;;0.93;0.93;;;;;;;-5.62;87.32;99240.69;4882065;29;20092;-90
2023/01/16 04:13:06;;;;;;;0.80;0.80;;;;;;;-5.64;87.34;99234.72;4899792;29;20071;-89
2023/01/16 04:15:42;;;;;;;0.80;0.80;;;;;;;-5.63;87.25;99231.13;4882942;29;20045;-89
2023/01/16 04:18:11;;;;;;;0.80;0.80;;;;;;;-5.61;87.19;99233.63;4969627;28;20061;-90
2023/01/16 04:20:45;;;;;;;0.70;0.70;;;;;;;-5.65;87.15;99238.31;4980731;28;20080;-91
2023/01/16 04:23:16;;;;;;;0.70;0.70;;;;;;;-5.63;87.24;99235.56;4964959;28;20054;-89
2023/01/16 04:25:48;;;;;;;;;;;;;;;-5.60;87.50;99238.72;4979796;28;20061;-89
2023/01/16 04:28:17;;;;;;;0.70;0.70;;;;;;;-5.63;87.41;99240.81;4998018;28;19925;-90
2023/01/16 04:30:49;;;;;;;0.98;0.98;;;;;;;-5.66;87.30;99226.97;5015134;28;20054;-90
2023/01/16 04:33:18;;;;;;;0.70;0.70;;;;;;;-5.63;87.48;99219.78;4983216;28;20429;-90
2023/01/16 04:35:50;;;;;;;0.80;0.80;;;;;;;-5.66;87.58;99232.22;4976288;28;20060;-89
2023/01/16 04:38:33;;;;;;;0.70;0.70;;;;;;;-5.62;87.34;99242.47;4996587;28;20034;-89
2023/01/16 04:41:05;;;;;;;0.90;0.90;;;;;;;-5.64;87.61;99223.38;4972495;28;20062;-88
2023/01/16 04:43:52;;;;;;;0.77;0.77;;;;;;;-5.72;87.54;99209.09;4969386;28;20448;-88
2023/01/16 04:46:25;;;;;;;0.90;0.90;;;;;;;-5.68;87.69;99223.63;4970245;28;20042;-89
2023/01/16 04:48:56;;;;;;;0.80;0.80;;;;;;;-5.64;87.27;99212.88;4973266;28;20136;-88
2023/01/16 04:51:39;;;;;;;0.68;0.68;;;;;;;-5.72;87.37;99203.84;5009029;28;20054;-92
2023/01/16 04:54:21;;;;;;;0.85;0.85;;;;;;;-5.70;87.58;99207.19;4988998;28;20078;-87
2023/01/16 04:56:51;;;;;;;0.70;0.70;;;;;;;-5.72;87.69;99159.16;4979261;28;20081;-92
2023/01/16 04:59:19;;;;;;;0.95;0.95;;;;;;;-5.74;87.50;99197.88;4982603;28;20045;-86
2023/01/16 05:01:52;;;;;;;0.85;0.85;;;;;;;-5.72;87.41;99216.13;4962557;28;20050;-86
2023/01/16 05:04:23;;;;;;;0.60;0.60;;;;;;;-5.76;87.46;99197.19;4990377;28;20137;-86
2023/01/16 05:06:51;;;;;;;0.80;0.80;;;;;;;-5.85;87.44;99210.31;4987777;28;20121;-88
2023/01/16 05:09:20;;;;;;;0.80;0.80;;;;;;;-5.76;87.33;99199.81;5016429;28;20141;-89
2023/01/16 05:11:55;;;;;;;0.80;0.80;;;;;;;-5.77;87.28;99192.06;4998488;28;20054;-88
2023/01/16 05:14:34;;;;;;;0.70;0.70;;;;;;;-5.78;87.28;99209.63;5009814;28;20456;-88
2023/01/16 05:17:10;;;;;;;0.90;0.90;;;;;;;-5.79;87.52;99209.78;5011821;28;20166;-87
2023/01/16 05:19:39;;;;;;;0.80;0.80;;;;;;;-5.80;87.30;99222.06;5017212;28;20137;-90
2023/01/16 05:22:43;;;;;;;0.70;0.70;;;;;;;-5.86;87.22;99198.97;5200095;23;20064;-90
2023/01/16 05:25:13;;;;;;;0.90;0.90;;;;;;;-5.76;87.52;99220.03;5004957;28;20483;-86
2023/01/16 05:27:52;;;;;;;0.80;0.80;;;;;;;-5.76;87.10;99220.03;4998674;28;20530;-93
2023/01/16 05:30:28;;;;;;;0.70;0.70;;;;;;;-5.91;87.33;99211.69;5020887;28;20081;-93
2023/01/16 05:33:16;;;;;;;0.77;0.77;;;;;;;-5.90;87.20;99181.78;5007168;28;20080;-91
2023/01/16 05:35:46;;;;;;;0.77;0.77;;;;;;;-5.82;87.32;99216.16;5003431;28;20519;-89
2023/01/16 05:38:13;;;;;;;0.80;0.80;;;;;;;-5.81;87.72;99195.94;4976251;28;20141;-88
2023/01/16 05:40:41;;;;;;;1.00;1.00;;;;;;;-5.79;87.72;99213.25;5004783;28;20072;-89
2023/01/16 05:43:16;;;;;;;0.82;0.82;;;;;;;-5.81;87.95;99209.09;4656773;28;10000431;-88
2023/01/16 05:45:46;;;;;;;0.75;0.75;;;;;;;-5.81;87.99;99204.66;5006805;28;20061;-90
2023/01/16 05:48:13;;;;;;;0.70;0.70;;;;;;;-5.93;88.11;99187.31;5001223;28;20109;-88
2023/01/16 05:50:41;;;;;;;0.60;0.60;;;;;;;-5.80;88.05;99211.56;4998841;28;20050;-88
2023/01/16 05:53:08;;;;;;;0.80;0.80;;;;;;;-5.93;87.94;99177.63;4979019;28;20121;-89
2023/01/16 05:55:43;;;;;;;0.60;0.60;;;;;;;-5.82;87.70;99216.16;4955794;28;20042;-87
2023/01/16 05:58:14;;;;;;;0.75;0.75;;;;;;;-5.90;87.69;99202.81;4974184;28;20069;-89
2023/01/16 06:00:42;;;;;;;0.70;0.70;;;;;;;-5.86;87.77;99214.75;4972488;28;20053;-85
2023/01/16 06:03:09;;;;;;;0.95;0.95;;;;;;;-5.90;87.21;99194.94;4954817;28;20050;-86
2023/01/16 06:05:36;;;;;;;0.80;0.80;;;;;;;-6.00;86.91;99181.81;4993554;28;20101;-86
2023/01/16 06:08:04;;;;;;;0.70;0.70;;;;;;;-5.97;86.97;99225.41;5014948;28;20111;-86
2023/01/16 06:10:31;;;;;;;0.70;0.70;;;;;;;-5.86;86.74;99211.28;5014084;28;20058;-86
2023/01/16 06:13:00;;;;;;;0.80;0.80;;;;;;;-5.95;86.98;99178.78;4979782;28;20451;-86
2023/01/16 06:15:28;;;;;;;0.80;0.80;;;;;;;-5.98;86.95;99208.78;5013187;28;20085;-86
2023/01/16 06:17:55;;;;;;;0.80;0.80;;;;;;;-5.93;87.07;99219.69;4995579;28;20096;-86
2023/01/16 06:20:23;;;;;;;0.80;0.80;;;;;;;-5.92;87.12;99204.78;4993038;28;20477;-85
2023/01/16 06:22:50;;;;;;;0.80;0.80;;;;;;;-5.92;87.08;99216.13;4979954;28;20458;-86
2023/01/16 06:25:18;;;;;;;0.80;0.80;;;;;;;-5.90;87.21;99213.34;4994779;28;20046;-86
2023/01/16 06:27:52;;;;;;;0.70;0.70;;;;;;;-6.01;86.81;99235.34;4996059;28;20141;-86
2023/01/16 06:30:20;;;;;;;0.70;0.70;;;;;;;-5.93;86.15;99213.59;5013218;28;20056;-85
2023/01/16 06:32:51;;;;;;;0.70;0.70;;;;;;;-5.98;85.86;99197.44;4979778;28;20045;-85
2023/01/16 06:35:18;;;;;;;0.98;0.98;;;;;;;-5.99;85.93;99204.50;5013128;28;20041;-85
2023/01/16 06:37:45;;;;;;;0.70;0.70;;;;;;;-5.97;85.84;99207.84;4995232;28;20050;-85
2023/01/16 06:40:18;;;;;;;0.73;0.73;;;;;;;-5.97;85.77;99218.34;4995769;28;20416;-86
2023/01/16 06:42:49;;;;;;;0.70;0.70;;;;;;;-6.05;85.63;99189.28;4996486;28;20077;-85
2023/01/16 06:45:16;;;;;;;0.80;0.80;;;;;;;-6.01;85.85;99211.69;5014454;28;20050;-85
2023/01/16 06:47:44;;;;;;;0.80;0.80;;;;;;;-6.05;85.99;99205.06;5022715;28;20109;-86
2023/01/16 06:50:12;;;;;;;0.70;0.70;;;;;;;-6.02;86.14;99198.69;4995105;28;20476;-85
2023/01/16 06:52:39;;;;;;;0.70;0.70;;;;;;;-5.98;86.22;99206.16;4976019;28;20049;-87
2023/01/16 06:55:07;;;;;;;0.70;0.70;;;;;;;-6.03;85.87;99181.25;5026309;28;20058;-86
2023/01/16 06:57:36;;;;;;;0.70;0.70;;;;;;;-6.01;86.17;99226.63;5023941;28;20045;-86
2023/01/16 07:00:04;;;;;;;0.70;0.70;;;;;;;-5.98;85.70;99226.34;4984333;28;20054;-85
2023/01/16 07:02:39;;;;;;;0.80;0.80;;;;;;;-6.10;85.61;99215.13;5003760;28;20069;-85
2023/01/16 07:05:08;;;;;;;0.80;0.80;;;;;;;-6.12;85.54;99204.75;4986156;28;20638;-85
2023/01/16 07:07:35;;;;;;;0.95;0.95;;;;;;;-6.13;85.29;99163.69;5013523;28;20084;-86
2023/01/16 07:10:03;;;;;;;0.88;0.88;;;;;;;-6.23;85.40;99207.44;5014719;28;20516;-87
2023/01/16 07:12:30;;;;;;;0.98;0.98;;;;;;;-6.24;85.51;99211.06;5013252;28;20038;-86
2023/01/16 07:23:30;;;;;;;0.70;0.70;;;;;;;-6.21;85.46;99200.28;4982960;28;20073;-85
2023/01/16 07:26:01;;;;;;;0.80;0.80;;;;;;;-6.30;85.51;99216.84;5013345;28;20539;-85
2023/01/16 07:28:28;;;;;;;0.90;0.90;;;;;;;-6.24;85.30;99220.72;4979761;28;20045;-86
2023/01/16 07:30:57;;;;;;;0.80;0.80;;;;;;;-6.35;85.44;99175.22;4995380;28;20064;-85
2023/01/16 07:33:24;;;;;;;0.82;0.82;;;;;;;-6.22;85.51;99182.03;5012828;28;20500;-86
2023/01/16 07:35:51;;;;;;;0.80;0.80;;;;;;;-6.22;85.37;99245.91;4994942;28;20687;-86
2023/01/16 07:38:18;;;;;;;0.70;0.70;;;;;;;-6.36;85.56;99191.91;5010429;28;20054;-84
2023/01/16 07:40:45;;;;;;;0.75;0.75;;;;;;;-6.32;85.57;99218.78;4987690;28;20516;-87
2023/01/16 07:55:00;;;;;;;0.60;0.60;;;;;;;-5.64;83.73;99212.88;5090067;27;1540170;-86
2023/01/16 08:09:11;;;;;;;1.00;1.00;;;;;;;-5.59;82.15;99229.06;5056701;27;1708954;-87
2023/01/16 08:11:39;;;;;;;0.70;0.70;;;;;;;-5.79;82.67;99192.22;5079122;28;20055;-89
2023/01/16 08:14:16;;;;;;;0.80;0.80;;;;;;;-5.86;83.08;99203.41;5086296;28;20054;-89
2023/01/16 08:16:45;;;;;;;0.68;0.68;;;;;;;-5.88;83.08;99222.75;5104532;28;20069;-92
2023/01/16 08:19:15;;;;;;;0.80;0.80;;;;;;;-6.02;83.20;99211.84;5063101;28;20044;-91
2023/01/16 08:53:30;;;;;;;0.80;0.80;;;;;;;-5.83;83.68;99193.44;6103877;23;20032;-87
2023/01/16 08:56:01;;;;;;;0.80;0.80;;;;;;;-5.82;83.97;99208.25;6071818;23;20022;-86
2023/01/16 08:58:34;;;;;;;0.70;0.70;;;;;;;-5.86;84.43;99213.91;6125312;23;20024;-88
2023/01/16 09:01:09;;;;;;;0.88;0.88;;;;;;;-5.95;84.50;99210.31;6124520;23;20021;-91
2023/01/16 09:03:44;;;;;;;0.80;0.80;;;;;;;-5.83;84.70;99211.84;6149955;23;20020;-95
2023/01/16 09:06:13;;;;;;;0.70;0.70;;;;;;;-5.94;85.21;99193.59;6179894;23;20029;-92
2023/01/16 09:08:41;;;;;;;0.70;0.70;;;;;;;-5.87;85.50;99202.56;6079994;23;20025;-90
2023/01/16 09:14:36;;;;;;;0.70;0.70;;;;;;;-5.95;85.89;99184.88;6040452;23;20093;-92
2023/01/16 09:17:06;;;;;;;0.90;0.90;;;;;;;-5.95;86.17;99169.13;6088537;23;20121;-90
2023/01/16 09:19:37;;;;;;;0.80;0.80;;;;;;;-5.98;86.08;99179.03;6105812;23;20025;-91
2023/01/16 09:22:09;;;;;;;0.85;0.85;;;;;;;-5.98;86.41;99198.25;6115847;23;20030;-89
2023/01/16 09:24:54;;;;;;;0.88;0.88;;;;;;;-5.83;86.46;99198.69;6099254;23;20033;-92
2023/01/16 09:27:25;;;;;;;;;;;;;;;-5.80;86.62;99187.91;6046680;23;20085;-91
2023/01/16 09:29:55;;;;;;;0.80;0.80;;;;;;;-5.93;86.78;99161.88;6096527;23;19925;-95
2023/01/16 09:32:29;;;;;;;0.90;0.90;;;;;;;-5.92;86.90;99160.09;6120727;23;20006;-92
2023/01/16 09:34:59;;;;;;;0.88;0.88;;;;;;;-5.90;86.99;99143.22;6087923;23;20033;-91
2023/01/16 09:37:26;;;;;;;0.82;0.82;;;;;;;-5.79;86.98;99160.66;6109046;23;20694;-92
2023/01/16 09:39:54;;;;;;;0.70;0.70;;;;;;;-5.72;87.12;99161.78;6063018;23;20032;-90
2023/01/16 09:46:04;;;;;;;0.60;0.60;;;;;;;-5.74;87.10;99134.78;6090295;23;20026;-89
2023/01/16 09:49:08;;;;;;;0.80;0.80;;;;;;;-5.69;87.14;99153.63;6042448;23;20525;-91
2023/01/16 09:58:34;;;;;;;0.73;0.73;;;;;;;-5.62;87.30;99153.06;6059790;23;20022;-90
2023/01/16 10:00:46;;;;;;;0.73;0.73;;;;;;;-5.42;86.85;99149.44;6088476;23;20030;-90
2023/01/16 10:03:14;;;;;;;0.73;0.73;;;;;;;-5.38;86.67;99137.69;5999928;23;20011;-88
2023/01/16 10:05:54;;;;;;;0.85;0.85;;;;;;;-5.36;86.59;99127.03;5988989;23;20032;-88
2023/01/16 10:08:38;;;;;;;0.80;0.80;;;;;;;-5.32;86.58;99133.66;5965740;23;20023;-87
2023/01/16 10:11:23;;;;;;;0.82;0.82;;;;;;;-5.33;86.22;99127.59;5968099;23;20027;-87
2023/01/16 10:13:58;;;;;;;0.70;0.70;;;;;;;-5.33;86.38;99137.28;5965422;23;20402;-91
2023/01/16 10:16:36;;;;;;;;;;;;;;;-5.28;86.40;99130.63;5943790;23;20032;-88
2023/01/16 10:19:09;;;;;;;0.90;0.90;;;;;;;-5.20;86.31;99121.19;5993282;23;19922;-88
2023/01/16 10:21:50;;;;;;;0.95;0.95;;;;;;;-5.19;86.38;99107.91;5974321;23;20027;-89
2023/01/16 10:24:41;;;;;;;0.70;0.70;;;;;;;-5.16;86.28;99094.47;5994237;23;20043;-89
2023/01/16 10:27:23;;;;;;;0.70;0.70;;;;;;;-5.04;86.22;99124.06;5965903;23;20034;-89
2023/01/16 10:30:19;;;;;;;0.80;0.80;;;;;;;-5.04;86.11;99113.53;6014116;23;20024;-89
2023/01/16 10:32:58;;;;;;;0.90;0.90;;;;;;;-4.94;85.93;99113.53;5903794;24;20117;-86
2023/01/16 10:36:00;;;;;;;0.80;0.80;;;;;;;-5.02;85.90;99098.44;5861881;24;20076;-90
2023/01/16 10:38:44;;;;;;;0.60;0.60;;;;;;;-4.96;85.68;99129.47;5824236;24;20071;-91
2023/01/16 10:50:27;;;;;;;0.90;0.90;;;;;;;-4.92;86.38;99099.25;5939944;24;20073;-89
2023/01/16 10:53:09;;;;;;;0.95;0.95;;;;;;;-4.94;86.61;99103.81;5915767;24;20054;-89
2023/01/16 10:55:54;;;;;;;0.80;0.80;;;;;;;-4.91;86.92;99110.59;5935786;24;20021;-89
2023/01/16 10:58:37;;;;;;;0.60;0.60;;;;;;;-4.91;86.81;99118.50;5936945;24;20024;-88
2023/01/16 11:01:11;;;;;;;0.63;0.63;;;;;;;-4.94;87.11;99122.25;5956616;24;20124;-87
2023/01/16 11:03:45;;;;;;;0.80;0.80;;;;;;;-5.01;87.26;99119.38;5934600;24;20149;-88
2023/01/16 11:06:31;;;;;;;0.73;0.73;;;;;;;-5.03;87.81;99108.16;5933588;24;20024;-89
2023/01/16 11:09:17;;;;;;;0.90;0.90;;;;;;;-5.02;87.69;99098.44;5940439;23;20030;-90
2023/01/16 11:20:45;;;;;;;0.73;0.73;;;;;;;-5.07;88.16;99084.88;6039732;23;20038;-88
2023/01/16 11:24:10;;;;;;;0.80;0.80;;;;;;;-5.10;88.26;99101.78;6080475;23;20030;-88
2023/01/16 11:26:58;;;;;;;0.68;0.68;;;;;;;-5.13;88.42;99080.19;6067015;23;20033;-88
2023/01/16 11:29:38;;;;;;;0.70;0.70;;;;;;;-5.10;88.39;99088.63;6078167;23;20030;-87
2023/01/16 11:32:17;;;;;;;0.70;0.70;;;;;;;-5.11;88.60;99079.09;6076173;23;20029;-88
2023/01/16 11:34:59;;;;;;;0.70;0.70;;;;;;;-5.10;88.35;99114.94;6061590;23;20052;-90
2023/01/16 11:37:30;;;;;;;0.70;0.70;;;;;;;-5.08;88.30;99110.38;6109270;23;20027;-89
2023/01/16 11:40:28;;;;;;;0.97;0.97;;;;;;;-5.05;87.98;99102.19;6092801;23;20018;-88
2023/01/16 11:46:35;;;;;;;0.60;0.60;;;;;;;-5.12;87.54;99098.47;5980195;23;20023;-90
2023/01/16 11:49:19;;;;;;;1.00;1.00;;;;;;;-5.13;87.14;99103.88;5974287;23;20066;-88
2023/01/16 11:51:54;;;;;;;0.63;0.63;;;;;;;-5.15;87.17;99105.81;6027401;23;20022;-86
2023/01/16 11:54:47;;;;;;;;;;;;;;;;;;;;;
2023/01/16 11:57:44;;;;;;;0.88;0.88;;;;;;;-5.11;86.93;99115.09;5990977;23;20023;-90
2023/01/16 12:00:37;;;;;;;0.70;0.70;;;;;;;-5.14;86.69;99120.63;6059804;23;20050;-88
2023/01/16 12:07:03;;;;;;;0.68;0.68;;;;;;;-5.21;86.30;99123.00;6092286;23;20114;-91
2023/01/16 12:10:17;;;;;;;0.60;0.60;;;;;;;-5.21;86.44;99116.91;6013051;23;20026;-88
2023/01/16 12:17:17;;;;;;;0.80;0.80;;;;;;;-5.35;86.61;99105.84;6023526;23;20030;-91
2023/01/16 12:20:20;;;;;;;0.80;0.80;;;;;;;-5.29;86.83;99096.56;5889916;24;20069;-87
2023/01/16 12:23:24;;;;;;;0.70;0.70;;;;;;;-5.39;86.88;99093.97;5887583;24;20045;-90
2023/01/16 12:26:24;;;;;;;0.65;0.65;;;;;;;-5.37;86.71;99094.63;5878739;24;20025;-89
2023/01/16 12:29:20;;;;;;;0.77;0.77;;;;;;;-5.40;86.91;99118.59;5891112;24;20078;-91
2023/01/16 12:32:53;;;;;;;0.80;0.80;;;;;;;-5.45;86.72;99105.03;5904141;24;20033;-90
2023/01/16 12:35:52;;;;;;;0.70;0.70;;;;;;;-5.40;86.85;99104.59;5867543;24;20044;-91
2023/01/16 12:38:46;;;;;;;0.82;0.82;;;;;;;-5.44;86.96;99106.69;5874988;24;20090;-89
2023/01/16 12:44:37;;;;;;;0.70;0.70;;;;;;;-5.42;87.16;99096.84;5857249;24;20056;-89
2023/01/16 12:47:32;;;;;;;0.82;0.82;;;;;;;-5.48;87.22;99106.13;5891128;24;20026;-87
2023/01/16 12:50:13;;;;;;;0.60;0.60;;;;;;;-5.52;87.61;99101.28;5854139;24;20040;-87
2023/01/16 12:53:17;;;;;;;0.80;0.80;;;;;;;-5.56;87.73;99102.56;5901519;24;20060;-86
2023/01/16 12:56:16;;;;;;;0.80;0.80;;;;;;;-5.59;87.84;99103.66;5948327;23;20339;-89
2023/01/16 12:59:12;;;;;;;0.85;0.85;;;;;;;-5.55;87.94;99089.25;6009403;23;20027;-85
2023/01/16 13:01:58;;;;;;;0.60;0.60;;;;;;;-5.52;88.24;99117.06;6001929;23;20023;-85
2023/01/16 13:04:40;;;;;;;0.70;0.70;;;;;;;-5.53;88.27;99094.38;6030769;23;20027;-84
2023/01/16 13:07:15;;;;;;;0.73;0.73;;;;;;;-5.49;88.21;99107.13;6007221;23;20023;-86
2023/01/16 13:13:31;;;;;;;0.70;0.70;;;;;;;-5.61;88.25;99117.91;5992198;23;20026;-85
2023/01/16 13:16:35;;;;;;;0.90;0.90;;;;;;;-5.58;88.38;99121.09;6012678;23;20388;-85
2023/01/16 13:19:36;;;;;;;0.60;0.60;;;;;;;-5.62;88.45;99122.34;5933411;24;20032;-83
2023/01/16 13:22:24;;;;;;;0.70;0.70;;;;;;;-5.61;88.77;99117.91;5928904;24;20048;-86
2023/01/16 13:25:25;;;;;;;0.80;0.80;;;;;;;-5.68;89.23;99118.44;5906058;24;20024;-85
2023/01/16 13:28:35;;;;;;;0.68;0.68;;;;;;;-5.65;89.04;99101.56;5866699;24;20022;-83
2023/01/16 13:34:26;;;;;;;0.80;0.80;;;;;;;-5.67;89.60;99108.78;5814498;24;20121;-86
2023/01/16 13:37:07;;;;;;;0.70;0.70;;;;;;;-5.67;89.77;99117.50;5818187;24;20093;-86
2023/01/16 13:40:09;;;;;;;0.70;0.70;;;;;;;-5.67;89.80;99116.69;5820566;24;20036;-84
2023/01/16 13:43:02;;;;;;;1.00;1.00;;;;;;;-5.68;89.91;99131.59;5841371;24;20407;-84
2023/01/16 13:45:51;;;;;;;0.70;0.70;;;;;;;-5.75;89.88;99135.75;5835632;24;20050;-87
2023/01/16 13:48:37;;;;;;;0.80;0.80;;;;;;;-5.76;90.09;99126.22;5835505;24;20093;-84
2023/01/16 13:51:49;;;;;;;0.70;0.70;;;;;;;-5.75;90.42;99127.03;5819593;24;20639;-86
2023/01/16 13:54:42;;;;;;;0.80;0.80;;;;;;;-5.73;90.73;99146.97;5814867;24;20117;-86
2023/01/16 13:57:30;;;;;;;0.70;0.70;;;;;;;-5.85;90.83;99110.41;5870292;24;20029;-85
2023/01/16 14:00:17;;;;;;;0.80;0.80;;;;;;;-5.69;90.89;99129.94;5870405;24;20032;-87
2023/01/16 14:03:21;;;;;;;0.70;0.70;;;;;;;-5.70;91.01;99130.06;5872725;24;20508;-86
2023/01/16 14:06:16;;;;;;;0.80;0.80;;;;;;;-5.81;91.02;99125.78;5936725;23;20058;-86
2023/01/16 14:09:17;;;;;;;0.70;0.70;;;;;;;-5.71;91.13;99134.50;5982600;23;20116;-84
2023/01/16 14:12:25;;;;;;;0.90;0.90;;;;;;;-5.67;90.90;99133.28;5981149;23;20047;-85
2023/01/16 14:18:29;;;;;;;0.80;0.80;;;;;;;-5.69;91.19;99144.91;5977686;23;20028;-86
2023/01/16 14:21:06;;;;;;;0.70;0.70;;;;;;;-5.70;91.42;99125.66;5958111;23;20027;-84
2023/01/16 14:24:01;;;;;;;0.77;0.77;;;;;;;-5.70;91.60;99127.44;6000522;23;20479;-85
2023/01/16 14:26:56;;;;;;;0.60;0.60;;;;;;;-5.67;91.76;99116.69;5978942;23;20048;-85
2023/01/16 14:30:02;;;;;;;0.70;0.70;;;;;;;-5.67;91.71;99114.06;5939219;23;20798;-87
2023/01/16 14:32:52;;;;;;;0.70;0.70;;;;;;;-5.67;91.80;99119.31;5955718;23;20023;-84
2023/01/16 14:36:38;;;;;;;0.82;0.82;;;;;;;-5.64;91.89;99112.94;6000144;23;20023;-86